Time;durP1;ratioP1;P1;durP2;ratioP2;P2;SDS_P1;SDS_P2;PMS_P1;PMS_P2;Temp;Humidity;BMP_temperature;BMP_pressure;BME280_temperature;BME280_humidity;BME280_pressure;Samples;Min_cycle;Max_cycle;Signal;HPM_P1;HPM_P2
2022/10/09 00:02:15;;;;;;;;;;;7.80;99.90;;;;;;4989465;28;19925;-73
2022/10/09 00:04:47;;;;;;;;;;;7.80;99.90;;;;;;5024917;28;19933;-73
2022/10/09 00:07:19;;;;;;;;;;;7.80;99.90;;;;;;5024603;28;19980;-72
2022/10/09 00:09:50;;;;;;;;;;;7.80;99.90;;;;;;4996414;28;19929;-73
2022/10/09 00:12:22;;;;;;;;;;;7.80;99.90;;;;;;5014854;28;19930;-73
2022/10/09 00:14:53;;;;;;;;;;;7.80;99.90;;;;;;5024867;28;20470;-72
2022/10/09 00:17:25;;;;;;;;;;;7.80;99.90;;;;;;5022036;28;19933;-73
2022/10/09 00:19:56;;;;;;;;;;;7.70;99.90;;;;;;5020516;28;20402;-73
2022/10/09 00:22:28;;;;;;;;;;;7.70;99.90;;;;;;5023501;28;19926;-73
2022/10/09 00:24:59;;;;;;;;;;;7.70;99.90;;;;;;5014666;28;19987;-73
2022/10/09 00:27:31;;;;;;;;;;;7.70;99.90;;;;;;5008363;28;19925;-73
2022/10/09 00:30:03;;;;;;;;;;;7.70;99.90;;;;;;5009128;28;19925;-74
2022/10/09 00:32:34;;;;;;;;;;;7.70;99.90;;;;;;5028529;28;19929;-73
2022/10/09 00:35:06;;;;;;;;;;;7.60;99.90;;;;;;5012228;28;19929;-73
2022/10/09 00:37:38;;;;;;;;;;;7.60;99.90;;;;;;5017607;28;20368;-73
2022/10/09 00:40:09;;;;;;;;;;;7.50;99.90;;;;;;5002052;28;19948;-73
2022/10/09 00:42:44;;;;;;;;;;;7.50;99.90;;;;;;5014066;28;19926;-72
2022/10/09 00:45:18;;;;;;;;;;;7.50;99.90;;;;;;5028529;28;19930;-73
2022/10/09 00:47:51;;;;;;;;;;;7.50;99.90;;;;;;5020173;28;20666;-73
2022/10/09 00:50:25;;;;;;;;;;;7.50;99.90;;;;;;5020511;28;19984;-73
2022/10/09 00:52:58;;;;;;;;;;;7.40;99.90;;;;;;5016327;28;19930;-73
2022/10/09 00:55:31;;;;;;;;;;;7.40;99.90;;;;;;5022106;28;19926;-73
2022/10/09 00:58:02;;;;;;;;;;;7.40;99.90;;;;;;5024391;28;19926;-72
2022/10/09 01:00:34;;;;;;;;;;;7.40;99.90;;;;;;5020679;28;20015;-73
2022/10/09 01:03:05;;;;;;;;;;;7.40;99.90;;;;;;5022252;28;19933;-73
2022/10/09 01:05:39;;;;;;;;;;;7.40;99.90;;;;;;5021835;28;20438;-73
2022/10/09 01:08:27;;;;;;;;;;;7.30;99.90;;;;;;5007643;28;19925;-73
2022/10/09 01:11:16;;;;;;;;;;;7.30;99.90;;;;;;5024999;28;19948;-73
2022/10/09 01:13:54;;;;;;;;;;;7.20;99.90;;;;;;4998346;28;19933;-72
2022/10/09 01:16:28;;;;;;;;;;;7.10;99.90;;;;;;5023241;28;19925;-73
2022/10/09 01:19:18;;;;;;;;;;;7.10;99.90;;;;;;5024663;28;19981;-72
2022/10/09 01:21:56;;;;;;;;;;;7.10;99.90;;;;;;5003205;28;20455;-72
2022/10/09 01:24:32;;;;;;;;;;;7.00;99.90;;;;;;5021737;28;19929;-70
2022/10/09 01:27:07;;;;;;;;;;;6.90;99.90;;;;;;5008061;28;19925;-71
2022/10/09 01:29:44;;;;;;;;;;;6.90;99.90;;;;;;5024869;28;19937;-73
2022/10/09 01:32:17;;;;;;;;;;;6.80;99.90;;;;;;5025159;28;19980;-73
2022/10/09 01:34:49;;;;;;;;;;;6.80;99.90;;;;;;5007973;28;19991;-72
2022/10/09 01:37:22;;;;;;;;;;;6.80;99.90;;;;;;5023451;28;19981;-73
2022/10/09 01:39:53;;;;;;;;;;;6.70;99.90;;;;;;5011382;28;20393;-73
2022/10/09 01:42:26;;;;;;;;;;;6.70;99.90;;;;;;5024225;28;19976;-72
2022/10/09 01:44:57;;;;;;;;;;;6.70;99.90;;;;;;5038021;28;19930;-72
2022/10/09 01:47:29;;;;;;;;;;;6.60;99.90;;;;;;5023899;28;19932;-73
2022/10/09 01:50:00;;;;;;;;;;;6.70;99.90;;;;;;5018678;28;19925;-73
2022/10/09 01:52:32;;;;;;;;;;;6.60;99.90;;;;;;4999153;28;19929;-73
2022/10/09 01:55:14;;;;;;;;;;;6.60;99.90;;;;;;5008334;28;19949;-73
2022/10/09 01:57:49;;;;;;;;;;;6.60;99.90;;;;;;5017359;28;19930;-73
2022/10/09 02:00:21;;;;;;;;;;;6.60;99.90;;;;;;5024106;28;19936;-73
2022/10/09 02:02:53;;;;;;;;;;;6.60;99.90;;;;;;5016356;28;20352;-73
2022/10/09 02:05:26;;;;;;;;;;;6.60;99.90;;;;;;4986851;28;20339;-73
2022/10/09 02:07:58;;;;;;;;;;;6.50;99.90;;;;;;5021620;28;19925;-73
2022/10/09 02:10:31;;;;;;;;;;;6.60;99.90;;;;;;5017517;28;19980;-73
2022/10/09 02:13:03;;;;;;;;;;;6.50;99.90;;;;;;5007244;28;19930;-73
2022/10/09 02:15:38;;;;;;;;;;;6.50;99.90;;;;;;5023946;28;19929;-72
2022/10/09 02:18:12;;;;;;;;;;;6.50;99.90;;;;;;5018495;28;19932;-73
2022/10/09 02:20:46;;;;;;;;;;;6.50;99.90;;;;;;5022053;28;19936;-73
2022/10/09 02:23:20;;;;;;;;;;;6.50;99.90;;;;;;5021269;28;19985;-73
2022/10/09 02:25:51;;;;;;;;;;;6.40;99.90;;;;;;5001106;28;19937;-73
2022/10/09 02:28:23;;;;;;;;;;;6.40;99.90;;;;;;5020941;28;19952;-73
2022/10/09 02:30:58;;;;;;;;;;;6.40;99.90;;;;;;5011429;28;20352;-73
2022/10/09 02:33:30;;;;;;;;;;;6.40;99.90;;;;;;5025390;28;20455;-73
2022/10/09 02:36:02;;;;;;;;;;;6.40;99.90;;;;;;5023571;28;19925;-73
2022/10/09 02:38:33;;;;;;;;;;;6.40;99.90;;;;;;5007294;28;19980;-73
2022/10/09 02:41:05;;;;;;;;;;;6.30;99.90;;;;;;5017386;28;19936;-73
2022/10/09 02:43:37;;;;;;;;;;;6.30;99.90;;;;;;5025983;28;19929;-72
2022/10/09 02:46:03;;;;;;;;;;;6.30;99.90;;;;;;5019672;28;19972;-73
2022/10/09 02:48:35;;;;;;;;;;;6.20;99.90;;;;;;5006338;28;19983;-73
2022/10/09 02:51:01;;;;;;;;;;;6.20;99.90;;;;;;5020123;28;19929;-72
2022/10/09 02:53:33;;;;;;;;;;;6.20;99.90;;;;;;5019967;28;20387;-72
2022/10/09 02:55:59;;;;;;;;;;;6.20;99.90;;;;;;5018651;28;19933;-73
2022/10/09 02:58:32;;;;;;;;;;;6.20;99.90;;;;;;5024610;28;19956;-73
2022/10/09 03:00:59;;;;;;;;;;;6.20;99.90;;;;;;5003937;28;19929;-73
2022/10/09 03:03:31;;;;;;;;;;;6.20;99.90;;;;;;5022919;28;19980;-73
2022/10/09 03:06:04;;;;;;;;;;;6.20;99.90;;;;;;5016145;28;20311;-72
2022/10/09 03:08:36;;;;;;;;;;;6.20;99.90;;;;;;5020809;28;19925;-73
2022/10/09 03:11:09;;;;;;;;;;;6.10;99.90;;;;;;5021230;28;19980;-73
2022/10/09 03:13:40;;;;;;;;;;;6.20;99.90;;;;;;5000180;28;19926;-73
2022/10/09 03:16:12;;;;;;;;;;;6.20;99.90;;;;;;5011112;28;19929;-73
2022/10/09 03:18:44;;;;;;;;;;;6.10;99.90;;;;;;5008758;28;19983;-73
2022/10/09 03:21:17;;;;;;;;;;;6.10;99.90;;;;;;5007775;28;19991;-73
2022/10/09 03:23:49;;;;;;;;;;;6.10;99.90;;;;;;4993550;28;19980;-73
2022/10/09 03:26:22;;;;;;;;;;;6.10;99.90;;;;;;5028673;28;19979;-73
2022/10/09 03:28:54;;;;;;;;;;;6.10;99.90;;;;;;5026647;28;19927;-73
2022/10/09 03:31:26;;;;;;;;;;;6.00;99.90;;;;;;5023398;28;19925;-73
2022/10/09 03:33:57;;;;;;;;;;;6.00;99.90;;;;;;5007115;28;19930;-73
2022/10/09 03:36:29;;;;;;;;;;;6.00;99.90;;;;;;5015107;28;19933;-72
2022/10/09 03:39:00;;;;;;;;;;;6.00;99.90;;;;;;5008941;28;20340;-72
2022/10/09 03:41:32;;;;;;;;;;;6.00;99.90;;;;;;5003270;28;19925;-73
2022/10/09 03:44:03;;;;;;;;;;;6.00;99.90;;;;;;5000182;28;19929;-73
2022/10/09 03:46:35;;;;;;;;;;;6.00;99.90;;;;;;5007298;28;19979;-72
2022/10/09 03:49:07;;;;;;;;;;;6.00;99.90;;;;;;5009216;28;19937;-73
2022/10/09 03:51:33;;;;;;;;;;;5.90;99.90;;;;;;4998305;28;20338;-73
2022/10/09 03:54:05;;;;;;;;;;;6.00;99.90;;;;;;5019340;28;20355;-73
2022/10/09 03:56:36;;;;;;;;;;;5.90;99.90;;;;;;5015697;28;19937;-73
2022/10/09 03:59:08;;;;;;;;;;;5.90;99.90;;;;;;5024211;28;19932;-73
2022/10/09 04:01:40;;;;;;;;;;;5.90;99.90;;;;;;5019057;28;19925;-72
2022/10/09 04:04:11;;;;;;;;;;;5.80;99.90;;;;;;5021876;28;19925;-73
2022/10/09 04:06:43;;;;;;;;;;;5.80;99.90;;;;;;5004914;28;19929;-73
2022/10/09 04:09:14;;;;;;;;;;;5.80;99.90;;;;;;5006647;28;19929;-73
2022/10/09 04:11:46;;;;;;;;;;;5.80;99.90;;;;;;5022723;28;19929;-73
2022/10/09 04:14:17;;;;;;;;;;;5.80;99.90;;;;;;5015702;28;20311;-73
2022/10/09 04:16:49;;;;;;;;;;;5.80;99.90;;;;;;4997477;28;19977;-72
2022/10/09 04:19:20;;;;;;;;;;;5.80;99.90;;;;;;4998564;28;19933;-73
2022/10/09 04:21:52;;;;;;;;;;;5.70;99.90;;;;;;5019166;28;20384;-73
2022/10/09 04:24:24;;;;;;;;;;;5.70;99.90;;;;;;5019666;28;19925;-73
2022/10/09 04:26:55;;;;;;;;;;;5.70;99.90;;;;;;5010851;28;19987;-73
2022/10/09 04:29:22;;;;;;;;;;;5.70;99.90;;;;;;5002052;28;19929;-73
2022/10/09 04:31:54;;;;;;;;;;;5.70;99.90;;;;;;4985578;28;19925;-72
2022/10/09 04:34:25;;;;;;;;;;;5.70;99.90;;;;;;5027942;28;20566;-73
2022/10/09 04:36:57;;;;;;;;;;;5.70;99.90;;;;;;5014401;28;19975;-73
2022/10/09 04:39:28;;;;;;;;;;;5.60;99.90;;;;;;5012765;28;20387;-73
2022/10/09 04:42:00;;;;;;;;;;;5.60;99.90;;;;;;4995548;28;19929;-73
2022/10/09 04:44:32;;;;;;;;;;;5.60;99.90;;;;;;5008557;28;19925;-73
2022/10/09 04:46:58;;;;;;;;;;;5.60;99.90;;;;;;5006217;28;19991;-72
2022/10/09 04:49:30;;;;;;;;;;;5.60;99.90;;;;;;5025334;28;19992;-72
2022/10/09 04:52:01;;;;;;;;;;;5.60;99.90;;;;;;5024648;28;19935;-72
2022/10/09 04:54:33;;;;;;;;;;;5.60;99.90;;;;;;5020616;28;19937;-72
2022/10/09 04:57:05;;;;;;;;;;;5.60;99.90;;;;;;5024927;28;19925;-72
2022/10/09 04:59:36;;;;;;;;;;;5.60;99.90;;;;;;5035412;28;19936;-72
2022/10/09 05:02:08;;;;;;;;;;;5.60;99.90;;;;;;5034782;28;19936;-72
2022/10/09 05:04:34;;;;;;;;;;;5.60;99.90;;;;;;5025918;28;20363;-72
2022/10/09 05:07:06;;;;;;;;;;;5.60;99.90;;;;;;5003889;28;19926;-72
2022/10/09 05:09:37;;;;;;;;;;;5.50;99.90;;;;;;5035136;28;19977;-72
2022/10/09 05:12:09;;;;;;;;;;;5.50;99.90;;;;;;5013191;28;20339;-72
2022/10/09 05:14:40;;;;;;;;;;;5.60;99.90;;;;;;5028490;28;19968;-72
2022/10/09 05:17:12;;;;;;;;;;;5.60;99.90;;;;;;5026749;28;19932;-72
2022/10/09 05:19:44;;;;;;;;;;;5.60;99.90;;;;;;5009528;28;19926;-72
2022/10/09 05:22:15;;;;;;;;;;;5.60;99.90;;;;;;5028881;28;19979;-72
2022/10/09 05:24:47;;;;;;;;;;;5.50;99.90;;;;;;5026787;28;19940;-72
2022/10/09 05:27:18;;;;;;;;;;;5.60;99.90;;;;;;5018276;28;19926;-72
2022/10/09 05:29:50;;;;;;;;;;;5.90;99.90;;;;;;5025262;28;19925;-72
2022/10/09 05:32:22;;;;;;;;;;;6.10;99.90;;;;;;5012507;28;19968;-75
2022/10/09 05:34:53;;;;;;;;;;;6.10;99.90;;;;;;5016535;28;19929;-72
2022/10/09 05:37:25;;;;;;;;;;;6.00;99.90;;;;;;5018106;28;20521;-72
2022/10/09 05:39:56;;;;;;;;;;;5.90;99.90;;;;;;5016471;28;19933;-72
2022/10/09 05:42:28;;;;;;;;;;;5.80;99.90;;;;;;5012214;28;19933;-73
2022/10/09 05:44:59;;;;;;;;;;;5.80;99.90;;;;;;5004578;28;19993;-72
2022/10/09 05:47:31;;;;;;;;;;;5.70;99.90;;;;;;5016219;28;19925;-72
2022/10/09 05:50:02;;;;;;;;;;;5.70;99.90;;;;;;5029322;28;20036;-72
2022/10/09 05:52:34;;;;;;;;;;;5.70;99.90;;;;;;5003955;28;20339;-72
2022/10/09 05:55:06;;;;;;;;;;;5.70;99.90;;;;;;5023070;28;19925;-72
2022/10/09 05:57:37;;;;;;;;;;;5.70;99.90;;;;;;5006926;28;19933;-72
2022/10/09 06:00:09;;;;;;;;;;;5.70;99.90;;;;;;5028452;28;19959;-72
2022/10/09 06:02:41;;;;;;;;;;;5.70;99.90;;;;;;5000609;28;19952;-73
2022/10/09 06:05:12;;;;;;;;;;;5.70;99.90;;;;;;5005622;28;19932;-72
2022/10/09 06:07:45;;;;;;;;;;;5.70;99.90;;;;;;5007844;28;19933;-72
2022/10/09 06:10:16;;;;;;;;;;;5.70;99.90;;;;;;5023215;28;19989;-72
2022/10/09 06:12:48;;;;;;;;;;;5.70;99.90;;;;;;5008736;28;20451;-72
2022/10/09 06:15:20;;;;;;;;;;;5.80;99.90;;;;;;5028307;28;20671;-72
2022/10/09 06:17:51;;;;;;;;;;;5.80;99.90;;;;;;5002361;28;19956;-73
2022/10/09 06:20:23;;;;;;;;;;;5.80;99.90;;;;;;5007703;28;19925;-72
2022/10/09 06:22:54;;;;;;;;;;;5.90;99.90;;;;;;5007370;28;19929;-73
2022/10/09 06:25:26;;;;;;;;;;;5.90;99.90;;;;;;5007169;28;20303;-73
2022/10/09 06:27:57;;;;;;;;;;;6.00;99.90;;;;;;5024265;28;19988;-73
2022/10/09 06:30:30;;;;;;;;;;;6.00;99.90;;;;;;5016291;28;19926;-72
2022/10/09 06:33:01;;;;;;;;;;;6.00;99.90;;;;;;5018888;28;19925;-72
2022/10/09 06:35:32;;;;;;;;;;;6.10;99.90;;;;;;5023656;28;19929;-73
2022/10/09 06:38:04;;;;;;;;;;;6.10;99.90;;;;;;5000854;28;20384;-72
2022/10/09 06:40:36;;;;;;;;;;;6.20;99.90;;;;;;5020068;28;20307;-72
2022/10/09 06:43:08;;;;;;;;;;;6.20;99.90;;;;;;5011714;28;20406;-73
2022/10/09 06:45:39;;;;;;;;;;;6.20;99.90;;;;;;5024040;28;20387;-73
2022/10/09 06:48:11;;;;;;;;;;;6.30;99.90;;;;;;5021605;28;19983;-73
2022/10/09 06:50:42;;;;;;;;;;;6.30;99.90;;;;;;5017498;28;19977;-73
2022/10/09 06:53:14;;;;;;;;;;;6.40;99.90;;;;;;5019110;28;19929;-73
2022/10/09 06:55:55;;;;;;;;;;;6.40;99.90;;;;;;5026623;28;19946;-75
2022/10/09 06:58:27;;;;;;;;;;;6.40;99.90;;;;;;5023205;28;19933;-73
2022/10/09 07:01:05;;;;;;;;;;;6.50;99.90;;;;;;5007205;28;19940;-72
2022/10/09 07:03:38;;;;;;;;;;;6.60;99.90;;;;;;5020607;28;19945;-73
2022/10/09 07:06:16;;;;;;;;;;;6.60;99.90;;;;;;4999605;28;20444;-73
2022/10/09 07:08:50;;;;;;;;;;;6.70;99.90;;;;;;5002240;28;19933;-72
2022/10/09 07:11:21;;;;;;;;;;;6.70;99.90;;;;;;5009467;28;19951;-72
2022/10/09 07:13:53;;;;;;;;;;;6.80;99.90;;;;;;5025073;28;19929;-72
2022/10/09 07:16:26;;;;;;;;;;;6.90;99.90;;;;;;5004914;28;19929;-72
2022/10/09 07:19:00;;;;;;;;;;;6.90;99.90;;;;;;5026392;28;19925;-72
2022/10/09 07:21:32;;;;;;;;;;;7.00;99.90;;;;;;5010142;28;19929;-71
2022/10/09 07:24:04;;;;;;;;;;;7.10;99.90;;;;;;5007429;28;20013;-73
2022/10/09 07:26:37;;;;;;;;;;;7.10;99.90;;;;;;5005589;28;19972;-72
2022/10/09 07:29:10;;;;;;;;;;;7.20;99.90;;;;;;5003316;28;20446;-72
2022/10/09 07:31:41;;;;;;;;;;;7.30;99.90;;;;;;5012431;28;19997;-73
2022/10/09 07:34:13;;;;;;;;;;;7.30;99.90;;;;;;5019518;28;20380;-73
2022/10/09 07:36:44;;;;;;;;;;;7.40;99.90;;;;;;5025074;28;20009;-72
2022/10/09 07:39:18;;;;;;;;;;;7.50;99.90;;;;;;5024909;28;19926;-72
2022/10/09 07:41:50;;;;;;;;;;;7.60;99.90;;;;;;5020391;28;19932;-73
2022/10/09 07:44:22;;;;;;;;;;;7.60;99.90;;;;;;5026069;28;19925;-73
2022/10/09 07:46:54;;;;;;;;;;;7.80;99.90;;;;;;5018091;28;20340;-73
2022/10/09 07:49:25;;;;;;;;;;;7.80;99.90;;;;;;5025402;28;19925;-72
2022/10/09 07:51:57;;;;;;;;;;;7.90;99.90;;;;;;5026294;28;19925;-73
2022/10/09 07:54:28;;;;;;;;;;;8.00;99.90;;;;;;5009857;28;21159;-72
2022/10/09 07:57:00;;;;;;;;;;;8.10;99.90;;;;;;5025538;28;19925;-73
2022/10/09 07:59:31;;;;;;;;;;;8.20;99.90;;;;;;5005090;28;20453;-73
2022/10/09 08:02:03;;;;;;;;;;;8.30;99.90;;;;;;5027840;28;19925;-73
2022/10/09 08:04:29;;;;;;;;;;;8.40;99.90;;;;;;5001537;28;19983;-73
2022/10/09 08:07:01;;;;;;;;;;;8.40;99.90;;;;;;5027046;28;19984;-72
2022/10/09 08:09:33;;;;;;;;;;;8.50;99.90;;;;;;5021831;28;20440;-73
2022/10/09 08:12:04;;;;;;;;;;;8.60;99.90;;;;;;5020361;28;19925;-73
2022/10/09 08:14:36;;;;;;;;;;;8.70;99.90;;;;;;5022260;28;19926;-73
2022/10/09 08:17:07;;;;;;;;;;;8.80;99.90;;;;;;5041653;28;20193;-73
2022/10/09 08:19:34;;;;;;;;;;;8.90;99.90;;;;;;5037105;28;20399;-73
2022/10/09 08:22:06;;;;;;;;;;;9.20;99.90;;;;;;5009760;28;19925;-73
2022/10/09 08:24:38;;;;;;;;;;;9.40;99.90;;;;;;5024525;28;19926;-73
2022/10/09 08:27:10;;;;;;;;;;;9.60;99.90;;;;;;5007042;28;19972;-73
2022/10/09 08:29:36;;;;;;;;;;;9.70;99.90;;;;;;5010845;28;19925;-73
2022/10/09 08:32:08;;;;;;;;;;;9.90;99.90;;;;;;5032838;28;19925;-73
2022/10/09 08:34:39;;;;;;;;;;;9.90;99.90;;;;;;5019167;28;19925;-73
2022/10/09 08:37:11;;;;;;;;;;;9.90;99.90;;;;;;5023368;28;19932;-73
2022/10/09 08:39:42;;;;;;;;;;;9.90;99.90;;;;;;5014441;28;19925;-73
2022/10/09 08:42:20;;;;;;;;;;;10.00;99.90;;;;;;5025824;28;19925;-74
2022/10/09 08:44:51;;;;;;;;;;;10.00;99.90;;;;;;5012723;28;19965;-73
2022/10/09 08:47:26;;;;;;;;;;;10.00;99.90;;;;;;5022433;28;20351;-73
2022/10/09 08:50:01;;;;;;;;;;;10.10;99.90;;;;;;5024061;28;19925;-73
2022/10/09 08:52:49;;;;;;;;;;;10.10;99.90;;;;;;5024197;28;19932;-73
2022/10/09 08:55:40;;;;;;;;;;;10.20;99.90;;;;;;5001557;28;19929;-73
2022/10/09 08:58:12;;;;;;;;;;;10.20;99.90;;;;;;5015918;28;19925;-73
2022/10/09 09:00:56;;;;;;;;;;;10.30;99.90;;;;;;5022843;28;19925;-73
2022/10/09 09:03:35;;;;;;;;;;;10.40;99.90;;;;;;5009732;28;19972;-73
2022/10/09 09:06:20;;;;;;;;;;;10.40;99.90;;;;;;5007294;28;19925;-73
2022/10/09 09:09:05;;;;;;;;;;;10.50;99.90;;;;;;5024947;28;19926;-73
2022/10/09 09:11:49;;;;;;;;;;;10.50;99.90;;;;;;5030372;28;19980;-73
2022/10/09 09:14:24;;;;;;;;;;;10.60;99.90;;;;;;5008155;28;19972;-73
2022/10/09 09:17:02;;;;;;;;;;;10.70;99.90;;;;;;5000342;28;20403;-73
2022/10/09 09:19:52;;;;;;;;;;;10.70;99.90;;;;;;5022378;28;19933;-73
2022/10/09 09:22:18;;;;;;;;;;;10.70;99.90;;;;;;5024626;28;19925;-73
2022/10/09 09:24:50;;;;;;;;;;;10.80;99.90;;;;;;5010652;28;19926;-73
2022/10/09 09:27:27;;;;;;;;;;;10.90;99.90;;;;;;5028517;28;19925;-73
2022/10/09 09:30:11;;;;;;;;;;;11.00;99.90;;;;;;5031292;28;19933;-73
2022/10/09 09:32:46;;;;;;;;;;;11.00;99.90;;;;;;5005831;28;19925;-73
2022/10/09 09:35:21;;;;;;;;;;;11.10;99.90;;;;;;5012477;28;19972;-73
2022/10/09 09:37:53;;;;;;;;;;;11.10;99.90;;;;;;5020710;28;19929;-73
2022/10/09 09:40:28;;;;;;;;;;;11.20;99.90;;;;;;5022941;28;20300;-73
2022/10/09 09:43:00;;;;;;;;;;;11.30;99.90;;;;;;5028352;28;19933;-73
2022/10/09 09:45:32;;;;;;;;;;;11.40;99.90;;;;;;5022543;28;19932;-73
2022/10/09 09:48:09;;;;;;;;;;;11.40;99.90;;;;;;5007771;28;20152;-73
2022/10/09 09:50:43;;;;;;;;;;;11.50;99.90;;;;;;5024494;28;19926;-73
2022/10/09 09:53:22;;;;;;;;;;;11.60;99.90;;;;;;5003416;28;19941;-74
2022/10/09 09:55:55;;;;;;;;;;;11.60;99.90;;;;;;5011380;28;19933;-73
2022/10/09 09:58:32;;;;;;;;;;;11.70;99.90;;;;;;5030818;28;19940;-73
2022/10/09 10:01:00;;;;;;;;;;;11.70;99.90;;;;;;5021619;28;19952;-73
2022/10/09 10:03:33;;;;;;;;;;;11.80;99.90;;;;;;5025931;28;19925;-73
2022/10/09 10:06:16;;;;;;;;;;;11.80;99.90;;;;;;5015992;28;19925;-74
2022/10/09 10:08:58;;;;;;;;;;;11.90;99.90;;;;;;5009223;28;20360;-74
2022/10/09 10:11:31;;;;;;;;;;;12.00;99.90;;;;;;5020884;28;19932;-73
2022/10/09 10:14:07;;;;;;;;;;;12.10;99.90;;;;;;5013679;28;19983;-73
2022/10/09 10:16:39;;;;;;;;;;;12.20;99.90;;;;;;5023364;28;19936;-73
2022/10/09 10:19:06;;;;;;;;;;;12.20;99.90;;;;;;5009490;28;19925;-73
2022/10/09 10:21:40;;;;;;;;;;;12.30;99.90;;;;;;5025748;28;19926;-72
2022/10/09 10:24:14;;;;;;;;;;;12.40;99.90;;;;;;5020600;28;19933;-73
2022/10/09 10:26:49;;;;;;;;;;;12.50;99.90;;;;;;5022211;28;20388;-73
2022/10/09 10:29:17;;;;;;;;;;;12.60;99.90;;;;;;5022802;28;19972;-73
2022/10/09 10:31:54;;;;;;;;;;;12.70;99.90;;;;;;5023746;28;20035;-72
2022/10/09 10:34:28;;;;;;;;;;;12.80;99.90;;;;;;5006804;28;20008;-73
2022/10/09 10:37:12;;;;;;;;;;;12.90;99.90;;;;;;5026385;28;19925;-72
2022/10/09 10:39:49;;;;;;;;;;;13.00;99.90;;;;;;5025740;28;19925;-73
2022/10/09 10:42:23;;;;;;;;;;;13.00;99.90;;;;;;5026715;28;19932;-73
2022/10/09 10:45:10;;;;;;;;;;;13.00;99.90;;;;;;5002740;28;19980;-73
2022/10/09 10:47:40;;;;;;;;;;;13.10;99.90;;;;;;5023146;28;19925;-73
2022/10/09 10:50:14;;;;;;;;;;;13.20;99.90;;;;;;5024114;28;20351;-73
2022/10/09 10:52:48;;;;;;;;;;;13.20;99.90;;;;;;5029571;28;19933;-73
2022/10/09 10:55:35;;;;;;;;;;;13.30;99.90;;;;;;5012628;28;19932;-73
2022/10/09 10:58:23;;;;;;;;;;;13.40;99.90;;;;;;5019652;28;19930;-73
2022/10/09 11:01:04;;;;;;;;;;;13.50;99.90;;;;;;5010488;28;20016;-73
2022/10/09 11:03:36;;;;;;;;;;;13.60;99.90;;;;;;5019835;28;19929;-73
2022/10/09 11:06:13;;;;;;;;;;;13.70;99.90;;;;;;5022985;28;19981;-73
2022/10/09 11:08:57;;;;;;;;;;;13.70;99.90;;;;;;4998427;28;19925;-73
2022/10/09 11:11:38;;;;;;;;;;;13.80;99.90;;;;;;5028473;28;19933;-73
2022/10/09 11:14:23;;;;;;;;;;;13.90;99.90;;;;;;5017732;28;19956;-73
2022/10/09 11:17:09;;;;;;;;;;;14.00;99.90;;;;;;5024690;28;19926;-73
2022/10/09 11:19:55;;;;;;;;;;;14.00;99.90;;;;;;5017566;28;19941;-73
2022/10/09 11:22:32;;;;;;;;;;;14.10;99.90;;;;;;5005557;28;19988;-73
2022/10/09 11:25:18;;;;;;;;;;;14.10;99.90;;;;;;5021300;28;20281;-73
2022/10/09 11:27:57;;;;;;;;;;;14.30;99.90;;;;;;5033373;28;19952;-73
2022/10/09 11:30:36;;;;;;;;;;;14.30;99.90;;;;;;5022567;28;19999;-73
2022/10/09 11:33:06;;;;;;;;;;;14.40;99.90;;;;;;5020184;28;19925;-73
2022/10/09 11:36:04;;;;;;;;;;;14.40;99.90;;;;;;5026922;28;19925;-73
2022/10/09 11:38:42;;;;;;;;;;;14.50;99.90;;;;;;5022208;28;19979;-73
2022/10/09 11:41:14;;;;;;;;;;;14.40;99.90;;;;;;5008266;28;20304;-73
2022/10/09 11:43:53;;;;;;;;;;;14.40;99.90;;;;;;5024136;28;19925;-73
2022/10/09 11:46:24;;;;;;;;;;;14.30;99.90;;;;;;5013375;28;19980;-73
2022/10/09 11:49:16;;;;;;;;;;;14.40;99.90;;;;;;5007955;28;19930;-72
2022/10/09 11:52:05;;;;;;;;;;;14.40;99.90;;;;;;5035297;28;19933;-73
2022/10/09 11:54:37;;;;;;;;;;;14.40;99.90;;;;;;5027785;28;19979;-74
2022/10/09 11:57:08;;;;;;;;;;;14.40;99.90;;;;;;5010187;28;19925;-73
2022/10/09 11:59:43;;;;;;;;;;;14.30;99.90;;;;;;5025225;28;19926;-73
2022/10/09 12:02:18;;;;;;;;;;;14.30;99.90;;;;;;5002424;28;19925;-74
2022/10/09 12:04:50;;;;;;;;;;;14.40;99.90;;;;;;5002308;28;19929;-74
2022/10/09 12:07:29;;;;;;;;;;;14.50;99.90;;;;;;5022314;28;19932;-74
2022/10/09 12:09:58;;;;;;;;;;;14.50;99.90;;;;;;5024023;28;19956;-74
2022/10/09 12:12:30;;;;;;;;;;;14.50;99.90;;;;;;5025257;28;20277;-73
2022/10/09 12:15:24;;;;;;;;;;;14.50;99.90;;;;;;5025334;28;19980;-73
2022/10/09 12:17:56;;;;;;;;;;;14.50;99.90;;;;;;4990353;28;20352;-73
2022/10/09 12:20:28;;;;;;;;;;;14.60;99.90;;;;;;5030615;28;19925;-74
2022/10/09 12:23:00;;;;;;;;;;;14.70;99.90;;;;;;5009003;28;19932;-74
2022/10/09 12:25:41;;;;;;;;;;;14.70;99.90;;;;;;5027685;28;19925;-72
2022/10/09 12:28:17;;;;;;;;;;;14.80;99.90;;;;;;5030793;28;19985;-74
2022/10/09 12:30:49;;;;;;;;;;;14.80;99.90;;;;;;5011242;28;20330;-73
2022/10/09 12:33:27;;;;;;;;;;;14.90;99.90;;;;;;5021726;28;19936;-73
2022/10/09 12:36:04;;;;;;;;;;;15.00;99.90;;;;;;4991844;28;19929;-73
2022/10/09 12:38:36;;;;;;;;;;;15.10;99.90;;;;;;5023266;28;19925;-73
2022/10/09 12:41:20;;;;;;;;;;;15.20;99.90;;;;;;5024182;28;19979;-73
2022/10/09 12:43:53;;;;;;;;;;;15.20;99.90;;;;;;5014871;28;19929;-73
2022/10/09 12:46:29;;;;;;;;;;;15.30;99.90;;;;;;5011953;28;19929;-74
2022/10/09 12:49:02;;;;;;;;;;;15.30;99.90;;;;;;5025339;28;19929;-72
2022/10/09 12:51:33;;;;;;;;;;;15.20;99.90;;;;;;5008531;28;19995;-73
2022/10/09 12:54:08;;;;;;;;;;;15.10;99.90;;;;;;5030095;28;19971;-73
2022/10/09 12:56:40;;;;;;;;;;;15.20;99.90;;;;;;4986048;28;19951;-73
2022/10/09 12:59:13;;;;;;;;;;;15.20;99.90;;;;;;5011788;28;20347;-73
2022/10/09 13:01:45;;;;;;;;;;;15.10;99.90;;;;;;5024845;28;19925;-74
2022/10/09 13:04:31;;;;;;;;;;;15.20;99.90;;;;;;5011603;28;19933;-73
2022/10/09 13:07:06;;;;;;;;;;;15.30;99.90;;;;;;5023432;28;19976;-72
2022/10/09 13:09:39;;;;;;;;;;;15.40;99.90;;;;;;5023490;28;19929;-73
2022/10/09 13:12:17;;;;;;;;;;;15.40;99.90;;;;;;5020517;28;19929;-72
2022/10/09 13:14:56;;;;;;;;;;;15.50;99.90;;;;;;5029109;28;19929;-73
2022/10/09 13:17:31;;;;;;;;;;;15.40;99.90;;;;;;5011909;28;19936;-73
2022/10/09 13:20:02;;;;;;;;;;;15.40;99.90;;;;;;5009872;28;19959;-73
2022/10/09 13:22:34;;;;;;;;;;;15.40;99.90;;;;;;4998657;28;19976;-74
2022/10/09 13:25:05;;;;;;;;;;;15.30;99.90;;;;;;5008384;28;19925;-73
2022/10/09 13:27:38;;;;;;;;;;;15.30;99.90;;;;;;5029028;28;19925;-74
2022/10/09 13:30:10;;;;;;;;;;;15.20;99.90;;;;;;5025410;28;19929;-74
2022/10/09 13:32:41;;;;;;;;;;;15.10;99.90;;;;;;5022457;28;19925;-74
2022/10/09 13:35:13;;;;;;;;;;;15.10;99.90;;;;;;5011379;28;19925;-72
2022/10/09 13:37:39;;;;;;;;;;;15.00;99.90;;;;;;5024721;28;19935;-74
2022/10/09 13:40:10;;;;;;;;;;;14.90;99.90;;;;;;4997813;28;19933;-73
2022/10/09 13:42:41;;;;;;;;;;;14.80;99.90;;;;;;5030908;28;20343;-73
2022/10/09 13:45:13;;;;;;;;;;;14.70;99.90;;;;;;5024104;28;19979;-73
2022/10/09 13:47:44;;;;;;;;;;;14.80;99.90;;;;;;5027230;28;19925;-73
2022/10/09 13:50:16;;;;;;;;;;;14.90;99.90;;;;;;5015334;28;20381;-73
2022/10/09 13:52:48;;;;;;;;;;;14.90;99.90;;;;;;5007797;28;19929;-74
2022/10/09 13:55:20;;;;;;;;;;;15.00;99.90;;;;;;4996476;28;19996;-73
2022/10/09 13:57:52;;;;;;;;;;;15.00;99.90;;;;;;5022807;28;20343;-72
2022/10/09 14:00:24;;;;;;;;;;;15.10;99.90;;;;;;4994534;28;19934;-73
2022/10/09 14:02:55;;;;;;;;;;;15.20;99.90;;;;;;5022961;28;19991;-73
2022/10/09 14:05:27;;;;;;;;;;;15.20;99.90;;;;;;5005600;28;20388;-73
2022/10/09 14:07:59;;;;;;;;;;;15.20;99.90;;;;;;5005856;28;19926;-73
2022/10/09 14:10:30;;;;;;;;;;;15.20;99.90;;;;;;5008959;28;19933;-72
2022/10/09 14:13:02;;;;;;;;;;;15.20;99.90;;;;;;4989110;28;19938;-73
2022/10/09 14:15:36;;;;;;;;;;;15.10;99.90;;;;;;5028261;28;19950;-73
2022/10/09 14:18:08;;;;;;;;;;;15.10;99.90;;;;;;5010383;28;19980;-73
2022/10/09 14:20:40;;;;;;;;;;;15.10;99.90;;;;;;5025555;28;19975;-73
2022/10/09 14:23:12;;;;;;;;;;;15.10;99.90;;;;;;5021260;28;20315;-73
2022/10/09 14:25:43;;;;;;;;;;;15.00;99.90;;;;;;5030365;28;19925;-74
2022/10/09 14:28:10;;;;;;;;;;;15.00;99.90;;;;;;5022544;28;19929;-72
2022/10/09 14:30:42;;;;;;;;;;;15.00;99.90;;;;;;5003931;28;19925;-73
2022/10/09 14:33:14;;;;;;;;;;;15.00;99.90;;;;;;5010083;28;20451;-72
2022/10/09 14:35:45;;;;;;;;;;;15.00;99.90;;;;;;5009172;28;19976;-73
2022/10/09 14:38:17;;;;;;;;;;;15.00;99.90;;;;;;5024424;28;19987;-74
2022/10/09 14:40:48;;;;;;;;;;;15.00;99.90;;;;;;5016872;28;19925;-72
2022/10/09 14:43:21;;;;;;;;;;;15.00;99.90;;;;;;5027863;28;20359;-72
2022/10/09 14:46:06;;;;;;;;;;;15.00;99.90;;;;;;5010970;28;20019;-74
2022/10/09 14:48:38;;;;;;;;;;;14.90;99.90;;;;;;5019887;28;20335;-74
2022/10/09 14:51:11;;;;;;;;;;;14.80;99.90;;;;;;5005976;28;20323;-73
2022/10/09 14:53:43;;;;;;;;;;;14.80;99.90;;;;;;5024388;28;19933;-74
2022/10/09 14:56:16;;;;;;;;;;;14.70;99.90;;;;;;5011327;28;19980;-73
2022/10/09 14:58:47;;;;;;;;;;;14.70;99.90;;;;;;5009191;28;19925;-73
2022/10/09 15:01:20;;;;;;;;;;;14.60;99.90;;;;;;5013260;28;19980;-75